createdAt,value
2022-10-17T00:01:48.186Z,3.00
2022-10-17T00:04:15.582Z,3.20
2022-10-17T00:06:42.774Z,3.00
2022-10-17T00:09:10.056Z,3.47
2022-10-17T00:11:37.354Z,3.35
2022-10-17T00:14:04.603Z,3.08
2022-10-17T00:16:37.022Z,3.40
2022-10-17T00:19:05.368Z,3.20
2022-10-17T00:21:32.972Z,3.28
2022-10-17T00:24:00.691Z,3.38
2022-10-17T00:26:29.636Z,3.28
2022-10-17T00:28:57.504Z,3.30
2022-10-17T00:31:24.983Z,3.08
2022-10-17T00:33:52.501Z,3.08
2022-10-17T00:36:24.165Z,3.40
2022-10-17T00:38:53.297Z,3.30
2022-10-17T00:41:22.124Z,3.20
2022-10-17T00:44:00.658Z,3.47
2022-10-17T00:46:29.984Z,3.00
2022-10-17T00:48:58.255Z,2.78
2022-10-17T00:51:33.729Z,3.20
2022-10-17T00:54:01.329Z,3.13
2022-10-17T00:56:28.646Z,3.13
2022-10-17T00:58:55.941Z,3.28
2022-10-17T01:01:23.327Z,3.03
2022-10-17T01:03:50.549Z,3.00
2022-10-17T01:06:18.664Z,3.72
2022-10-17T01:08:45.918Z,3.00
2022-10-17T01:11:22.049Z,2.95
2022-10-17T01:14:14.907Z,3.20
2022-10-17T01:16:49.076Z,2.92
2022-10-17T01:19:39.179Z,3.47
2022-10-17T01:22:17.190Z,2.90
2022-10-17T01:25:01.809Z,2.85
2022-10-17T01:27:36.775Z,3.20
2022-10-17T01:30:16.967Z,3.15
2022-10-17T01:32:54.619Z,3.08
2022-10-17T01:35:37.010Z,3.17
2022-10-17T01:38:11.642Z,3.13
2022-10-17T01:41:07.399Z,2.92
2022-10-17T01:43:40.066Z,2.70
2022-10-17T01:46:10.408Z,3.20
2022-10-17T01:48:38.001Z,3.13
2022-10-17T01:51:10.298Z,3.40
2022-10-17T01:53:41.055Z,3.28
2022-10-17T01:56:08.668Z,3.22
2022-10-17T01:58:45.634Z,2.97
2022-10-17T02:01:12.977Z,3.50
2022-10-17T02:03:41.061Z,2.88
2022-10-17T02:06:08.304Z,3.15
2022-10-17T02:08:46.444Z,3.15
2022-10-17T02:11:24.347Z,2.90
2022-10-17T02:14:19.508Z,3.10
2022-10-17T02:17:15.228Z,3.00
2022-10-17T02:19:51.109Z,2.97
2022-10-17T02:22:47.082Z,2.65
2022-10-17T02:25:45.098Z,2.95
2022-10-17T02:28:18.797Z,2.90
2022-10-17T02:30:51.250Z,2.85
2022-10-17T02:33:41.174Z,2.95
2022-10-17T02:36:22.321Z,3.00
2022-10-17T02:38:50.637Z,2.72
2022-10-17T02:41:18.510Z,3.05
2022-10-17T02:43:47.203Z,2.67
2022-10-17T02:46:20.793Z,2.90
2022-10-17T02:48:59.568Z,3.10
2022-10-17T02:51:37.632Z,2.80
2022-10-17T02:54:17.115Z,3.08
2022-10-17T02:57:02.526Z,3.20
2022-10-17T02:59:29.803Z,3.10
2022-10-17T03:01:57.111Z,2.92
2022-10-17T03:04:24.952Z,2.83
2022-10-17T03:06:52.210Z,2.95
2022-10-17T03:09:19.467Z,3.00
2022-10-17T03:11:46.705Z,3.42
2022-10-17T03:14:13.954Z,2.83
2022-10-17T03:16:41.838Z,2.92
2022-10-17T03:19:09.108Z,2.80
2022-10-17T03:21:37.955Z,2.90
2022-10-17T03:24:07.158Z,2.97
2022-10-17T03:26:34.514Z,2.90
2022-10-17T03:29:02.760Z,2.78
2022-10-17T03:31:30.755Z,2.90
2022-10-17T03:33:58.793Z,3.08
2022-10-17T03:36:26.117Z,2.97
2022-10-17T03:38:54.789Z,2.55
2022-10-17T03:41:23.129Z,2.90
2022-10-17T03:43:53.232Z,3.00
2022-10-17T03:46:20.872Z,2.78
2022-10-17T03:48:48.562Z,2.88
2022-10-17T03:51:16.791Z,2.83
2022-10-17T03:53:49.708Z,2.58
2022-10-17T03:56:18.761Z,2.72
2022-10-17T03:58:52.434Z,2.90
2022-10-17T04:01:19.945Z,2.83
2022-10-17T04:03:52.279Z,3.22
2022-10-17T04:06:19.649Z,2.95
2022-10-17T04:08:47.109Z,2.63
2022-10-17T04:11:19.581Z,3.17
2022-10-17T04:13:48.073Z,2.80
2022-10-17T04:16:16.393Z,3.10
2022-10-17T04:19:00.242Z,2.95
2022-10-17T04:21:31.216Z,3.08
2022-10-17T04:24:03.534Z,2.83
2022-10-17T04:26:51.261Z,3.17
2022-10-17T04:29:19.779Z,2.90
2022-10-17T04:31:51.664Z,2.97
2022-10-17T04:34:39.105Z,2.90
2022-10-17T04:37:06.534Z,2.97
2022-10-17T04:39:34.585Z,3.40
2022-10-17T04:42:02.824Z,3.53
2022-10-17T04:44:31.075Z,3.40
2022-10-17T04:46:59.488Z,3.38
2022-10-17T04:49:27.245Z,3.45
2022-10-17T04:51:59.401Z,3.92
2022-10-17T04:54:32.240Z,3.50
2022-10-17T04:57:06.760Z,3.72
2022-10-17T04:59:34.185Z,3.30
2022-10-17T05:02:15.297Z,3.60
2022-10-17T05:04:42.583Z,3.55
2022-10-17T05:07:11.693Z,3.75
2022-10-17T05:09:44.250Z,3.47
2022-10-17T05:12:12.120Z,3.70
2022-10-17T05:14:43.015Z,3.78
2022-10-17T05:17:10.263Z,3.58
2022-10-17T05:19:38.089Z,3.88
2022-10-17T05:22:06.483Z,3.42
2022-10-17T05:24:34.000Z,3.70
2022-10-17T05:27:01.265Z,3.45
2022-10-17T05:29:28.617Z,3.95
2022-10-17T05:32:04.615Z,3.70
2022-10-17T05:34:33.390Z,3.75
2022-10-17T05:37:00.644Z,4.05
2022-10-17T05:39:27.997Z,3.88
2022-10-17T05:41:57.007Z,4.00
2022-10-17T05:44:24.398Z,4.03
2022-10-17T05:46:55.676Z,4.55
2022-10-17T05:49:33.413Z,4.30
2022-10-17T05:52:11.203Z,4.38
2022-10-17T05:54:52.922Z,4.40
2022-10-17T05:57:20.779Z,4.93
2022-10-17T05:59:48.342Z,5.00
2022-10-17T06:02:19.660Z,4.18
2022-10-17T06:04:48.737Z,4.60
2022-10-17T06:07:16.544Z,4.43
2022-10-17T06:12:13.354Z,4.20
2022-10-17T06:14:41.903Z,4.57
2022-10-17T06:17:13.417Z,4.50
2022-10-17T06:19:44.869Z,4.50
2022-10-17T06:22:13.859Z,4.18
2022-10-17T06:25:36.864Z,4.50
2022-10-17T06:28:04.634Z,3.78
2022-10-17T06:30:32.066Z,4.72
2022-10-17T06:32:59.524Z,4.13
2022-10-17T06:35:27.041Z,4.35
2022-10-17T06:37:54.426Z,4.20
2022-10-17T06:40:23.160Z,5.07
2022-10-17T06:42:50.719Z,4.18
2022-10-17T06:45:45.717Z,4.32
2022-10-17T06:48:18.966Z,4.35
2022-10-17T06:51:05.592Z,4.47
2022-10-17T06:53:43.293Z,4.28
2022-10-17T06:56:26.343Z,4.38
2022-10-17T06:59:15.486Z,4.32
2022-10-17T07:01:50.100Z,4.53
2022-10-17T07:04:17.740Z,4.78
2022-10-17T07:06:45.342Z,4.85
2022-10-17T07:09:22.802Z,4.78
2022-10-17T07:11:50.622Z,4.97
2022-10-17T07:14:19.079Z,5.20
2022-10-17T07:16:47.328Z,5.05
2022-10-17T07:19:23.656Z,5.30
2022-10-17T07:21:51.390Z,4.70
2022-10-17T07:24:18.698Z,4.85
2022-10-17T07:26:49.951Z,4.50
2022-10-17T07:29:17.481Z,4.90
2022-10-17T07:31:59.095Z,4.70
2022-10-17T07:34:27.586Z,4.40
2022-10-17T07:36:55.391Z,4.68
2022-10-17T07:39:23.507Z,4.47
2022-10-17T07:41:50.903Z,4.35
2022-10-17T07:44:19.100Z,3.83
2022-10-17T07:46:50.174Z,4.10
2022-10-17T07:49:18.637Z,4.28
2022-10-17T07:54:14.964Z,4.15
2022-10-17T07:56:43.043Z,3.90
2022-10-17T07:59:10.535Z,4.22
2022-10-17T08:01:40.389Z,4.00
2022-10-17T08:04:13.443Z,3.90
2022-10-17T08:06:40.730Z,4.28
2022-10-17T08:09:08.149Z,3.80
2022-10-17T08:11:36.493Z,4.18
2022-10-17T08:14:03.930Z,4.07
2022-10-17T08:16:31.134Z,3.95
2022-10-17T08:18:58.512Z,4.15
2022-10-17T08:21:25.797Z,4.05
2022-10-17T08:23:53.389Z,4.00
2022-10-17T08:26:22.333Z,4.20
2022-10-17T08:28:49.977Z,3.80
2022-10-17T08:31:18.848Z,4.18
2022-10-17T08:34:15.905Z,3.55
2022-10-17T08:36:43.131Z,3.78
2022-10-17T08:39:42.077Z,3.30
2022-10-17T08:42:38.857Z,3.47
2022-10-17T08:45:24.903Z,3.30
2022-10-17T08:48:03.277Z,3.10
2022-10-17T08:50:30.501Z,3.05
2022-10-17T08:53:18.990Z,2.90
2022-10-17T08:55:47.597Z,3.20
2022-10-17T08:58:17.294Z,3.22
2022-10-17T09:01:02.283Z,3.28
2022-10-17T09:04:01.835Z,3.58
2022-10-17T09:06:37.756Z,2.90
2022-10-17T09:09:52.749Z,3.33
2022-10-17T09:13:13.970Z,3.50
2022-10-17T09:16:20.745Z,3.20
2022-10-17T09:18:58.791Z,3.08
2022-10-17T09:21:37.391Z,3.50
2022-10-17T09:24:09.717Z,3.65
2022-10-17T09:26:39.309Z,2.90
2022-10-17T09:29:35.332Z,2.90
2022-10-17T09:32:11.507Z,2.92
2022-10-17T09:34:39.713Z,3.45
2022-10-17T09:37:12.293Z,2.53
2022-10-17T09:39:41.707Z,2.83
2022-10-17T09:42:12.744Z,3.30
2022-10-17T09:44:50.752Z,2.50
2022-10-17T09:47:57.556Z,2.70
2022-10-17T09:50:28.830Z,3.33
2022-10-17T09:52:56.981Z,3.00
2022-10-17T09:55:44.016Z,3.20
2022-10-17T09:58:11.486Z,2.50
2022-10-17T10:00:41.221Z,2.72
2022-10-17T10:03:20.943Z,3.10
2022-10-17T10:06:05.019Z,3.00
2022-10-17T10:08:49.863Z,2.55
2022-10-17T10:11:18.024Z,2.70
2022-10-17T10:13:48.388Z,2.60
2022-10-17T10:16:21.042Z,2.97
2022-10-17T10:18:50.146Z,2.72
2022-10-17T10:21:20.700Z,2.78
2022-10-17T10:24:10.885Z,2.80
2022-10-17T10:27:11.036Z,2.33
2022-10-17T10:29:42.639Z,2.58
2022-10-17T10:32:22.534Z,2.72
2022-10-17T10:34:52.881Z,2.80
2022-10-17T10:37:25.930Z,2.60
2022-10-17T10:39:54.971Z,2.70
2022-10-17T10:42:36.674Z,2.72
2022-10-17T10:49:35.983Z,2.40
2022-10-17T10:52:04.008Z,2.53
2022-10-17T10:54:43.575Z,2.40
2022-10-17T10:57:13.371Z,2.25
2022-10-17T10:59:53.352Z,2.50
2022-10-17T11:02:22.625Z,2.15
2022-10-17T11:04:55.907Z,2.20
2022-10-17T11:08:16.366Z,2.40
2022-10-17T11:11:08.491Z,2.40
2022-10-17T11:13:45.068Z,2.22
2022-10-17T11:16:16.845Z,2.60
2022-10-17T11:18:53.215Z,2.70
2022-10-17T11:21:34.059Z,2.30
2022-10-17T11:24:19.371Z,2.30
2022-10-17T11:26:54.982Z,2.50
2022-10-17T11:29:24.054Z,2.40
2022-10-17T11:31:52.517Z,2.20
2022-10-17T11:34:23.962Z,2.55
2022-10-17T11:36:53.434Z,3.33
2022-10-17T11:39:39.481Z,2.83
2022-10-17T11:42:09.769Z,2.60
2022-10-17T11:44:38.393Z,2.63
2022-10-17T11:47:23.695Z,2.63
2022-10-17T11:49:53.547Z,2.10
2022-10-17T11:52:54.859Z,2.53
2022-10-17T11:55:29.715Z,2.50
2022-10-17T11:58:58.759Z,2.22
2022-10-17T12:01:44.803Z,2.38
2022-10-17T12:04:36.199Z,2.33
2022-10-17T12:07:16.159Z,1.92
2022-10-17T12:09:49.202Z,2.20
2022-10-17T12:12:43.907Z,2.90
2022-10-17T12:15:19.953Z,2.20
2022-10-17T12:17:59.468Z,2.00
2022-10-17T12:20:38.828Z,2.22
2022-10-17T12:23:13.114Z,1.92
2022-10-17T12:25:50.588Z,2.00
2022-10-17T12:28:27.026Z,1.80
2022-10-17T12:31:15.371Z,2.22
2022-10-17T12:34:03.435Z,2.35
2022-10-17T12:36:44.915Z,2.25
2022-10-17T12:39:14.851Z,2.20
2022-10-17T12:41:43.163Z,2.30
2022-10-17T12:44:13.465Z,2.63
2022-10-17T12:46:56.513Z,1.92
2022-10-17T12:49:42.608Z,2.10
2022-10-17T12:52:25.583Z,2.10
2022-10-17T12:55:10.904Z,2.25
2022-10-17T12:57:47.672Z,1.80
2022-10-17T13:00:31.327Z,2.20
2022-10-17T13:03:12.737Z,2.10
2022-10-17T13:12:41.200Z,1.88
2022-10-17T13:15:11.594Z,1.77
2022-10-17T13:17:43.068Z,2.00
2022-10-17T13:20:28.876Z,1.95
2022-10-17T13:23:01.215Z,1.75
2022-10-17T13:25:29.155Z,2.00
2022-10-17T13:28:39.349Z,1.83
2022-10-17T13:31:33.525Z,1.80
2022-10-17T13:34:05.589Z,1.98
2022-10-17T13:36:35.421Z,1.80
2022-10-17T13:39:13.125Z,1.80
2022-10-17T13:41:48.184Z,1.90
2022-10-17T13:44:29.518Z,2.03
2022-10-17T13:47:00.385Z,1.98
2022-10-17T13:49:42.148Z,2.22
2022-10-17T13:52:20.262Z,2.10
2022-10-17T13:54:54.431Z,1.92
2022-10-17T13:59:53.467Z,2.13
2022-10-17T14:02:23.660Z,1.85
2022-10-17T14:05:18.642Z,2.08
2022-10-17T14:10:44.663Z,2.13
2022-10-17T14:13:48.306Z,1.98
2022-10-17T14:16:15.859Z,1.60
2022-10-17T14:18:47.404Z,2.33
2022-10-17T14:21:40.498Z,2.00
2022-10-17T14:24:16.336Z,1.73
2022-10-17T14:26:54.657Z,1.83
2022-10-17T14:29:28.916Z,2.40
2022-10-17T14:34:35.093Z,1.88
2022-10-17T14:37:02.376Z,2.17
2022-10-17T14:39:29.621Z,2.40
2022-10-17T14:42:00.760Z,3.15
2022-10-17T14:44:34.903Z,2.10
2022-10-17T14:49:47.202Z,2.30
2022-10-17T14:52:18.667Z,2.20
2022-10-17T14:54:47.504Z,2.17
2022-10-17T14:57:17.715Z,2.30
2022-10-17T14:59:54.169Z,2.22
2022-10-17T15:02:23.490Z,2.33
2022-10-17T15:04:50.754Z,2.83
2022-10-17T15:07:17.996Z,2.00
2022-10-17T15:09:45.498Z,2.05
2022-10-17T15:12:24.659Z,2.22
2022-10-17T15:14:52.151Z,2.30
2022-10-17T15:17:27.517Z,2.58
2022-10-17T15:19:54.912Z,2.75
2022-10-17T15:22:22.387Z,2.05
2022-10-17T15:24:49.615Z,2.20
2022-10-17T15:27:18.471Z,2.00
2022-10-17T15:29:45.726Z,2.45
2022-10-17T15:32:12.977Z,2.00
2022-10-17T15:34:40.195Z,2.15
2022-10-17T15:37:11.056Z,2.10
2022-10-17T15:39:38.748Z,2.20
2022-10-17T15:42:09.915Z,2.55
2022-10-17T15:44:37.082Z,2.55
2022-10-17T15:47:17.570Z,2.28
2022-10-17T15:49:44.710Z,2.30
2022-10-17T15:52:12.207Z,2.35
2022-10-17T15:54:39.361Z,2.75
2022-10-17T15:57:06.624Z,2.22
2022-10-17T15:59:34.283Z,2.45
2022-10-17T16:02:01.437Z,2.65
2022-10-17T16:04:30.534Z,2.17
2022-10-17T16:06:57.978Z,2.25
2022-10-17T16:09:25.469Z,1.90
2022-10-17T16:11:52.850Z,1.90
2022-10-17T16:14:20.045Z,2.17
2022-10-17T16:16:47.253Z,2.10
2022-10-17T16:19:14.480Z,2.10
2022-10-17T16:21:41.687Z,1.90
2022-10-17T16:24:12.416Z,2.22
2022-10-17T16:26:39.999Z,2.50
2022-10-17T16:29:08.193Z,2.33
2022-10-17T16:31:41.749Z,2.20
2022-10-17T16:34:10.175Z,2.30
2022-10-17T16:36:37.352Z,2.38
2022-10-17T16:39:04.505Z,2.20
2022-10-17T16:41:36.216Z,2.50
2022-10-17T16:44:08.763Z,2.17
2022-10-17T16:46:36.852Z,2.70
2022-10-17T16:51:46.246Z,2.80
2022-10-17T16:54:13.372Z,2.65
2022-10-17T16:56:42.017Z,2.85
2022-10-17T16:59:10.593Z,2.60
2022-10-17T17:01:38.157Z,2.70
2022-10-17T17:04:05.417Z,2.80
2022-10-17T17:06:32.588Z,2.67
2022-10-17T17:08:59.862Z,2.95
2022-10-17T17:11:27.771Z,3.60
2022-10-17T17:13:56.219Z,3.20
2022-10-17T17:16:24.118Z,3.50
2022-10-17T17:18:58.865Z,3.30
2022-10-17T17:21:27.706Z,3.50
2022-10-17T17:23:58.160Z,3.38
2022-10-17T17:26:25.996Z,3.28
2022-10-17T17:28:54.392Z,3.42
2022-10-17T17:31:23.331Z,3.78
2022-10-17T17:33:50.739Z,4.57
2022-10-17T17:36:20.065Z,3.45
2022-10-17T17:38:47.449Z,3.75
2022-10-17T17:41:16.619Z,3.65
2022-10-17T17:43:44.139Z,3.67
2022-10-17T17:46:11.660Z,4.32
2022-10-17T17:48:39.752Z,4.40
2022-10-17T17:51:07.859Z,4.13
2022-10-17T17:53:35.236Z,4.35
2022-10-17T17:56:14.088Z,4.07
2022-10-17T17:58:45.644Z,4.15
2022-10-17T18:01:18.005Z,4.30
2022-10-17T18:03:45.454Z,4.75
2022-10-17T18:06:12.801Z,3.92
2022-10-17T18:08:40.030Z,4.78
2022-10-17T18:11:07.656Z,4.50
2022-10-17T18:13:34.834Z,4.38
2022-10-17T18:16:02.065Z,4.63
2022-10-17T18:18:30.371Z,4.63
2022-10-17T18:20:59.059Z,4.38
2022-10-17T18:26:07.612Z,4.70
2022-10-17T18:28:35.663Z,4.78
2022-10-17T18:31:07.141Z,4.40
2022-10-17T18:33:34.426Z,4.45
2022-10-17T18:36:07.786Z,4.45
2022-10-17T18:38:35.003Z,5.07
2022-10-17T18:41:07.579Z,5.13
2022-10-17T18:43:38.943Z,5.50
2022-10-17T18:46:23.008Z,5.35
2022-10-17T18:48:50.230Z,5.63
2022-10-17T18:51:20.859Z,5.10
2022-10-17T18:53:49.892Z,5.32
2022-10-17T18:56:17.472Z,6.28
2022-10-17T18:58:45.091Z,6.40
2022-10-17T19:01:17.495Z,6.30
2022-10-17T19:03:45.558Z,5.53
2022-10-17T19:06:15.771Z,6.05
2022-10-17T19:08:43.469Z,6.15
2022-10-17T19:11:12.435Z,5.88
2022-10-17T19:13:39.652Z,5.93
2022-10-17T19:16:08.059Z,6.05
2022-10-17T19:18:35.565Z,6.00
2022-10-17T19:21:07.316Z,6.30
2022-10-17T19:23:37.634Z,5.95
2022-10-17T19:26:06.143Z,6.00
2022-10-17T19:28:33.668Z,6.60
2022-10-17T19:31:06.094Z,6.90
2022-10-17T19:33:33.257Z,6.50
2022-10-17T19:36:09.624Z,7.30
2022-10-17T19:38:36.878Z,7.68
2022-10-17T19:41:07.950Z,8.10
2022-10-17T19:43:42.006Z,8.20
2022-10-17T19:46:20.185Z,8.32
2022-10-17T19:48:48.443Z,8.57
2022-10-17T19:51:17.618Z,8.40
2022-10-17T19:53:44.913Z,8.25
2022-10-17T19:56:12.304Z,8.18
2022-10-17T19:58:46.444Z,7.88
2022-10-17T20:01:15.552Z,7.10
2022-10-17T20:03:42.786Z,7.65
2022-10-17T20:06:10.159Z,7.28
2022-10-17T20:08:38.281Z,7.43
2022-10-17T20:11:07.319Z,7.38
2022-10-17T20:13:35.230Z,7.95
2022-10-17T20:16:02.643Z,7.97
2022-10-17T20:18:30.010Z,7.32
2022-10-17T20:21:02.528Z,7.82
2022-10-17T20:23:29.678Z,8.18
2022-10-17T20:26:13.308Z,7.85
2022-10-17T20:28:48.842Z,7.85
2022-10-17T20:31:16.027Z,7.65
2022-10-17T20:33:43.204Z,8.23
2022-10-17T20:36:11.773Z,8.50
2022-10-17T20:38:39.066Z,7.85
2022-10-17T20:41:09.769Z,8.20
2022-10-17T20:43:37.222Z,7.53
2022-10-17T20:46:16.955Z,7.80
2022-10-17T20:48:52.045Z,8.43
2022-10-17T20:51:20.191Z,8.18
2022-10-17T20:53:48.178Z,7.75
2022-10-17T20:56:25.946Z,8.90
2022-10-17T20:59:12.792Z,8.15
2022-10-17T21:01:40.223Z,7.60
2022-10-17T21:04:33.429Z,8.35
2022-10-17T21:06:54.678Z,8.02
2022-10-17T21:09:22.032Z,7.88
2022-10-17T21:11:51.628Z,7.30
2022-10-17T21:14:18.993Z,7.72
2022-10-17T21:16:46.155Z,8.00
2022-10-17T21:19:13.424Z,7.47
2022-10-17T21:21:42.579Z,7.18
2022-10-17T21:24:14.463Z,8.70
2022-10-17T21:26:42.226Z,8.15
2022-10-17T21:29:10.021Z,8.60
2022-10-17T21:31:37.920Z,7.82
2022-10-17T21:34:09.708Z,6.93
2022-10-17T21:36:43.026Z,8.13
2022-10-17T21:39:11.271Z,7.70
2022-10-17T21:41:38.489Z,6.70
2022-10-17T21:44:11.136Z,7.18
2022-10-17T21:46:38.255Z,7.30
2022-10-17T21:49:05.607Z,6.40
2022-10-17T21:51:32.823Z,6.10
2022-10-17T21:54:00.199Z,6.95
2022-10-17T21:56:28.815Z,6.50
2022-10-17T21:58:56.587Z,6.80
2022-10-17T22:01:26.025Z,6.32
2022-10-17T22:03:54.870Z,6.53
2022-10-17T22:06:40.667Z,6.25
2022-10-17T22:09:15.723Z,6.18
2022-10-17T22:11:45.164Z,5.47
2022-10-17T22:14:13.978Z,5.90
2022-10-17T22:19:25.298Z,5.57
2022-10-17T22:21:52.861Z,5.55
2022-10-17T22:26:48.777Z,5.45
2022-10-17T22:29:16.039Z,5.28
2022-10-17T22:31:43.596Z,5.50
2022-10-17T22:34:12.060Z,5.75
2022-10-17T22:36:39.379Z,5.60
2022-10-17T22:39:06.653Z,4.97
2022-10-17T22:41:33.839Z,5.25
2022-10-17T22:44:01.234Z,4.82
2022-10-17T22:46:28.428Z,4.68
2022-10-17T22:48:55.593Z,4.70
2022-10-17T22:53:49.904Z,5.00
2022-10-17T22:56:19.067Z,5.20
2022-10-17T22:58:46.239Z,5.20
2022-10-17T23:01:18.406Z,5.20
2022-10-17T23:03:45.711Z,5.18
2022-10-17T23:06:13.097Z,4.57
2022-10-17T23:08:40.399Z,5.10
2022-10-17T23:11:07.871Z,5.00
2022-10-17T23:13:35.327Z,5.13
2022-10-17T23:16:03.536Z,5.20
2022-10-17T23:23:39.071Z,4.90
2022-10-17T23:26:14.037Z,5.00
2022-10-17T23:28:42.027Z,4.53
2022-10-17T23:31:14.772Z,4.75
2022-10-17T23:33:42.208Z,5.07
2022-10-17T23:36:10.491Z,4.60
2022-10-17T23:38:38.450Z,4.88
2022-10-17T23:41:05.749Z,5.30
2022-10-17T23:43:34.157Z,4.45
2022-10-17T23:46:01.930Z,4.70
2022-10-17T23:48:29.270Z,4.40
2022-10-17T23:50:56.941Z,4.90
2022-10-17T23:53:24.299Z,4.80
2022-10-17T23:55:51.445Z,4.47
2022-10-17T23:58:18.804Z,4.60
